Time;durP1;ratioP1;P1;durP2;ratioP2;P2;SDS_P1;SDS_P2;PMS_P1;PMS_P2;Temp;Humidity;BMP_temperature;BMP_pressure;BME280_temperature;BME280_humidity;BME280_pressure;Samples;Min_cycle;Max_cycle;Signal;HPM_P1;HPM_P2
2020/12/09 00:01:54;;;;;;;19.10;11.55;;;;;;;-4.64;80.74;96780.51;1747100;81;21179;-51
2020/12/09 00:04:22;;;;;;;19.80;12.13;;;;;;;-4.73;81.17;96780.56;1712080;83;21091;-52
2020/12/09 00:06:50;;;;;;;19.50;12.05;;;;;;;-4.66;81.26;96784.72;1714487;82;21500;-52
2020/12/09 00:09:19;;;;;;;17.82;10.90;;;;;;;-4.61;81.07;96785.96;1732175;82;21113;-53
2020/12/09 00:11:50;;;;;;;20.90;10.75;;;;;;;-4.62;81.07;96782.59;1716421;82;26400;-52
2020/12/09 00:14:19;;;;;;;21.62;12.58;;;;;;;-4.52;81.10;96786.34;1749894;82;21085;-51
2020/12/09 00:16:48;;;;;;;;;;;;;;;-4.47;80.57;96775.73;1736558;81;21094;-52
2020/12/09 00:19:15;;;;;;;21.45;12.28;;;;;;;-4.54;80.62;96777.89;1712112;82;20232;-52
2020/12/09 00:21:43;;;;;;;18.65;10.32;;;;;;;-4.60;80.84;96782.59;1687925;83;21642;-52
2020/12/09 00:24:11;;;;;;;41.37;13.43;;;;;;;-4.62;80.97;96783.03;1703038;82;21213;-52
2020/12/09 00:26:39;;;;;;;24.52;11.65;;;;;;;-4.66;81.25;96780.92;1735424;82;21519;-52
2020/12/09 00:29:07;;;;;;;17.32;11.43;;;;;;;-4.72;81.44;96778.86;1714299;82;21164;-52
2020/12/09 00:31:35;;;;;;;17.37;11.33;;;;;;;-4.75;81.51;96780.14;1737017;82;21115;-52
2020/12/09 00:34:02;;;;;;;24.02;11.97;;;;;;;-4.75;81.73;96786.08;1736990;82;21488;-52
2020/12/09 00:36:30;;;;;;;24.40;12.33;;;;;;;-4.67;81.59;96790.66;1720718;82;22318;-53
2020/12/09 00:38:58;;;;;;;31.73;10.85;;;;;;;-4.65;81.27;96788.95;1736972;82;21138;-51
2020/12/09 00:41:28;;;;;;;26.52;12.93;;;;;;;-4.70;81.39;96788.58;1734929;82;21129;-50
2020/12/09 00:43:56;;;;;;;36.77;13.25;;;;;;;-4.74;81.42;96777.61;1733915;81;21157;-52
2020/12/09 00:46:26;;;;;;;43.52;13.48;;;;;;;-4.83;81.78;96793.70;1765348;81;21221;-52
2020/12/09 00:48:55;;;;;;;20.17;11.33;;;;;;;-4.87;81.99;96786.14;1747792;80;21399;-51
2020/12/09 00:51:25;;;;;;;20.68;11.18;;;;;;;-4.84;82.06;96794.98;1767323;81;21685;-51
2020/12/09 00:53:54;;;;;;;27.40;11.18;;;;;;;-4.89;82.19;96791.64;1764567;81;21602;-51
2020/12/09 00:56:23;;;;;;;20.60;11.95;;;;;;;-4.90;82.25;96787.02;1741116;80;21195;-51
2020/12/09 00:58:52;;;;;;;23.07;13.25;;;;;;;-4.78;82.20;96787.36;1725451;83;21075;-52
2020/12/09 01:01:21;;;;;;;31.52;14.35;;;;;;;-4.71;81.86;96790.69;1728594;81;22138;-52
2020/12/09 01:03:50;;;;;;;29.15;13.00;;;;;;;-4.70;81.83;96782.25;1745991;81;21628;-52
2020/12/09 01:06:18;;;;;;;20.07;11.70;;;;;;;-4.68;81.56;96778.00;1761418;81;21554;-51
2020/12/09 01:08:46;;;;;;;22.95;12.53;;;;;;;-4.70;81.52;96778.45;1761216;81;21136;-52
2020/12/09 01:11:15;;;;;;;21.77;12.60;;;;;;;-4.70;81.64;96777.19;1753601;81;21757;-51
2020/12/09 01:13:44;;;;;;;41.05;13.93;;;;;;;-4.66;81.52;96785.16;1761230;81;21406;-51
2020/12/09 01:16:15;;;;;;;51.90;14.93;;;;;;;-4.57;81.62;96782.57;1740135;81;21099;-52
2020/12/09 01:18:44;;;;;;;25.05;12.40;;;;;;;-4.44;81.04;96783.31;1704763;83;21144;-52
2020/12/09 01:21:12;;;;;;;25.12;12.50;;;;;;;-4.41;80.84;96773.13;1732981;81;21103;-52
2020/12/09 01:23:40;;;;;;;26.17;13.08;;;;;;;-4.39;80.67;96770.59;1745813;81;21104;-51
2020/12/09 01:26:11;;;;;;;22.25;11.93;;;;;;;-4.38;80.62;96760.88;1751416;81;21342;-51
2020/12/09 01:28:38;;;;;;;24.00;12.18;;;;;;;-4.39;80.39;96768.91;1747564;81;21122;-51
2020/12/09 01:31:06;;;;;;;23.07;12.53;;;;;;;-4.40;80.38;96766.39;1725678;81;21109;-52
2020/12/09 01:33:34;;;;;;;21.52;13.55;;;;;;;-4.46;80.39;96763.47;1736642;81;21140;-51
2020/12/09 01:36:02;;;;;;;20.72;11.22;;;;;;;-4.46;80.54;96756.73;1736662;81;21507;-50
2020/12/09 01:38:30;;;;;;;24.27;13.48;;;;;;;-4.45;80.56;96755.03;1725245;83;21382;-51
2020/12/09 01:40:58;;;;;;;20.55;11.80;;;;;;;-4.47;80.61;96758.01;1743835;80;21518;-52
2020/12/09 01:43:25;;;;;;;21.95;10.75;;;;;;;-4.47;80.61;96756.31;1744953;81;21683;-51
2020/12/09 01:45:53;;;;;;;21.82;12.45;;;;;;;-4.49;80.52;96756.75;1741011;81;21193;-51
2020/12/09 01:48:22;;;;;;;26.33;12.78;;;;;;;-4.56;80.65;96756.38;1748401;81;21060;-52
2020/12/09 01:50:51;;;;;;;34.35;13.75;;;;;;;-4.55;80.93;96759.33;1758368;81;21612;-51
2020/12/09 01:53:19;;;;;;;25.45;14.30;;;;;;;-4.53;80.87;96756.35;1733824;81;21100;-51
2020/12/09 01:55:47;;;;;;;21.55;12.07;;;;;;;-4.47;80.91;96757.58;1759736;81;21147;-51
2020/12/09 01:58:15;;;;;;;33.48;13.62;;;;;;;-4.37;80.57;96753.27;1754458;81;21474;-52
2020/12/09 02:00:43;;;;;;;21.25;12.28;;;;;;;-4.34;80.02;96745.64;1747494;82;21148;-52
2020/12/09 02:03:11;;;;;;;22.22;12.30;;;;;;;-4.42;80.26;96752.88;1749684;81;21201;-51
2020/12/09 02:05:42;;;;;;;23.22;13.05;;;;;;;-4.49;80.35;96755.48;1750131;82;21093;-51
2020/12/09 02:08:10;;;;;;;40.88;14.65;;;;;;;-4.53;80.58;96755.52;1702033;82;21057;-52
2020/12/09 02:10:39;;;;;;;22.27;13.27;;;;;;;-4.50;80.74;96752.97;1739571;82;21618;-52
2020/12/09 02:13:07;;;;;;;22.65;13.68;;;;;;;-4.46;80.55;96751.67;1712188;83;21171;-52
2020/12/09 02:15:35;;;;;;;20.30;11.00;;;;;;;-4.41;80.52;96754.13;1715552;82;21381;-51
2020/12/09 02:18:03;;;;;;;29.12;13.45;;;;;;;-4.44;80.37;96761.35;1725402;82;21093;-51
2020/12/09 02:20:31;;;;;;;23.83;13.28;;;;;;;-4.47;80.42;96761.81;1750501;82;21089;-51
2020/12/09 02:23:00;;;;;;;;;;;;;;;-4.58;80.54;96758.09;1745734;82;21183;-51
2020/12/09 02:25:28;;;;;;;28.20;12.33;;;;;;;-4.58;80.87;96756.82;1734669;82;20512;-53
2020/12/09 02:27:56;;;;;;;31.05;13.72;;;;;;;-4.53;80.80;96758.05;1737961;82;21281;-52
2020/12/09 02:30:24;;;;;;;55.15;15.35;;;;;;;-4.59;80.72;96766.52;1682205;83;21646;-51
2020/12/09 02:32:52;;;;;;;;;;;;;;;-4.63;81.18;96771.21;1697382;84;21093;-52
2020/12/09 02:35:20;;;;;;;33.92;14.30;;;;;;;-4.64;81.00;96774.58;1694804;84;20230;-52
2020/12/09 02:37:49;;;;;;;27.70;11.73;;;;;;;-4.66;81.12;96773.77;1756248;81;21077;-50
2020/12/09 02:40:18;;;;;;;28.00;12.65;;;;;;;-4.60;81.15;96770.36;1715984;83;21380;-52
2020/12/09 02:42:45;;;;;;;21.00;12.13;;;;;;;-4.61;80.98;96764.44;1742088;82;21156;-51
2020/12/09 02:45:14;;;;;;;22.35;12.95;;;;;;;-4.63;81.20;96766.15;1699178;84;21602;-52
2020/12/09 02:47:42;;;;;;;;;;;;;;;-4.69;81.23;96761.98;1713303;82;21557;-52
2020/12/09 02:50:10;;;;;;;20.85;12.75;;;;;;;-4.74;81.50;96760.32;1722568;82;20239;-52
2020/12/09 02:52:38;;;;;;;23.42;13.25;;;;;;;-4.72;81.60;96756.08;1722678;81;21120;-51
2020/12/09 02:55:06;;;;;;;19.95;11.33;;;;;;;-4.64;81.47;96759.39;1737415;81;28509;-52
2020/12/09 02:57:35;;;;;;;25.40;13.35;;;;;;;-4.60;81.17;96756.00;1722619;82;21212;-52
2020/12/09 03:00:05;;;;;;;19.10;11.15;;;;;;;-4.62;81.10;96767.84;1720234;83;21199;-51
2020/12/09 03:02:33;;;;;;;23.10;13.28;;;;;;;-4.57;81.39;96763.58;1720200;82;21184;-52
2020/12/09 03:05:01;;;;;;;21.10;10.50;;;;;;;-4.47;80.83;96768.14;1722046;83;22162;-52
2020/12/09 03:07:29;;;;;;;19.95;11.10;;;;;;;-4.48;80.75;96756.32;1749300;82;21183;-52
2020/12/09 03:09:56;;;;;;;19.12;11.35;;;;;;;-4.57;80.62;96753.45;1734414;82;21124;-52
2020/12/09 03:12:24;;;;;;;21.93;12.60;;;;;;;-4.70;81.11;96755.23;1751411;82;21104;-51
2020/12/09 03:14:52;;;;;;;19.87;12.03;;;;;;;-4.79;81.37;96761.61;1743038;82;21057;-52
2020/12/09 03:17:19;;;;;;;18.30;11.28;;;;;;;-4.87;81.74;96757.89;1720163;83;21452;-51
2020/12/09 03:19:49;;;;;;;19.77;12.00;;;;;;;-4.92;82.00;96763.38;1751517;81;21073;-52
2020/12/09 03:22:19;;;;;;;22.98;13.35;;;;;;;-4.94;82.20;96764.27;1720857;83;21052;-52
2020/12/09 03:24:47;;;;;;;20.02;11.48;;;;;;;-4.90;82.23;96760.84;1720083;83;21121;-52
2020/12/09 03:27:15;;;;;;;23.02;11.75;;;;;;;-4.83;81.94;96754.47;1751535;82;21113;-56
2020/12/09 03:29:42;;;;;;;17.40;10.98;;;;;;;-4.81;81.93;96758.27;1702536;83;21213;-52
2020/12/09 03:32:10;;;;;;;20.25;12.60;;;;;;;-4.78;81.74;96758.68;1751486;82;22000;-52
2020/12/09 03:34:37;;;;;;;21.60;12.95;;;;;;;-4.84;81.67;96755.31;1751497;82;21160;-51
2020/12/09 03:37:06;;;;;;;21.20;12.43;;;;;;;-4.89;81.84;96755.77;1721711;82;21156;-52
2020/12/09 03:39:34;;;;;;;17.55;11.78;;;;;;;-4.90;81.93;96754.52;1720175;83;21128;-50
2020/12/09 03:42:02;;;;;;;19.45;11.35;;;;;;;-4.92;82.01;96753.26;1705541;83;21386;-53
2020/12/09 03:44:30;;;;;;;20.15;11.75;;;;;;;-4.85;81.98;96758.72;1694695;84;21105;-51
2020/12/09 03:46:59;;;;;;;18.80;11.55;;;;;;;-4.83;81.73;96763.34;1712611;83;21056;-51
2020/12/09 03:49:26;;;;;;;20.82;12.60;;;;;;;-4.83;81.72;96758.70;1719972;83;21161;-52
2020/12/09 03:51:54;;;;;;;19.62;12.00;;;;;;;-4.83;81.80;96766.30;1720020;82;21144;-52
2020/12/09 03:54:24;;;;;;;17.77;11.50;;;;;;;-4.85;81.76;96761.68;1720932;83;21210;-52
2020/12/09 03:56:52;;;;;;;16.67;10.45;;;;;;;-4.87;81.86;96753.23;1714013;82;21756;-51
2020/12/09 03:59:19;;;;;;;19.60;11.68;;;;;;;-4.81;81.84;96750.23;1710207;82;21058;-51
2020/12/09 04:01:48;;;;;;;18.53;11.57;;;;;;;-4.72;81.60;96741.75;1776363;78;21557;-52
2020/12/09 04:04:16;;;;;;;18.17;11.22;;;;;;;-4.65;81.57;96740.84;1774779;80;21553;-51
2020/12/09 04:06:44;;;;;;;20.55;11.70;;;;;;;-4.51;81.01;96748.74;1774578;80;23404;-51
2020/12/09 04:09:12;;;;;;;19.77;11.93;;;;;;;-4.52;80.36;96747.91;1757699;79;21506;-51
2020/12/09 04:11:40;;;;;;;20.10;12.55;;;;;;;-4.57;80.52;96755.12;1774726;80;21089;-51
2020/12/09 04:14:08;;;;;;;19.55;11.48;;;;;;;-4.62;80.59;96755.18;1726411;82;21184;-50
2020/12/09 04:16:35;;;;;;;20.35;11.60;;;;;;;-4.65;80.64;96747.17;1722918;82;21557;-51
2020/12/09 04:19:03;;;;;;;18.37;11.57;;;;;;;-4.64;80.71;96748.86;1815403;78;21198;-51
2020/12/09 04:21:31;;;;;;;22.17;13.48;;;;;;;-4.56;80.60;96751.74;1809015;79;21185;-52
2020/12/09 04:23:59;;;;;;;26.37;12.03;;;;;;;-4.50;80.62;96746.64;1814630;79;21066;-51
2020/12/09 04:26:26;;;;;;;25.90;13.88;;;;;;;-4.35;80.20;96759.16;1807620;79;21133;-52
2020/12/09 04:28:54;;;;;;;32.33;13.57;;;;;;;-4.33;79.98;96759.97;1750651;79;21122;-51
2020/12/09 04:31:22;;;;;;;58.75;15.53;;;;;;;-4.32;80.04;96759.56;1815725;77;21491;-52
2020/12/09 04:34:00;;;;;;;44.23;15.08;;;;;;;-4.31;80.04;96751.95;1799983;78;21066;-51
2020/12/09 04:36:27;;;;;;;30.60;12.82;;;;;;;-4.23;80.20;96746.80;1780394;79;21106;-51
2020/12/09 04:38:55;;;;;;;26.07;13.53;;;;;;;-4.03;79.46;96741.55;1815904;79;21137;-52
2020/12/09 04:41:22;;;;;;;27.00;12.37;;;;;;;-4.01;79.09;96739.83;1814250;79;21153;-52
2020/12/09 04:43:50;;;;;;;27.58;12.05;;;;;;;-4.14;79.00;96752.22;1814726;79;21348;-53
2020/12/09 04:46:17;;;;;;;30.35;10.48;;;;;;;-4.29;79.58;96755.74;1781564;79;21128;-52
2020/12/09 04:48:57;;;;;;;42.62;13.80;;;;;;;-4.32;79.51;96749.44;1798350;79;21141;-51
2020/12/09 04:52:03;;;;;;;42.67;13.70;;;;;;;-4.35;79.65;96752.82;1771564;79;21592;-52
2020/12/09 04:54:38;;;;;;;27.37;13.03;;;;;;;-4.35;79.78;96751.55;1791006;79;21170;-50
2020/12/09 04:57:12;;;;;;;31.37;12.90;;;;;;;-4.49;80.31;96744.50;1799037;78;21850;-51
2020/12/09 04:59:42;;;;;;;23.38;11.97;;;;;;;-4.52;80.57;96745.81;1737733;81;21080;-51
2020/12/09 05:02:11;;;;;;;23.90;13.50;;;;;;;-4.49;80.70;96748.30;1774292;80;21069;-51
2020/12/09 05:04:39;;;;;;;30.40;14.53;;;;;;;-4.47;80.67;96748.70;1754486;80;21102;-50
2020/12/09 05:07:11;;;;;;;30.12;12.45;;;;;;;-4.56;80.92;96739.08;1751806;80;21589;-51
2020/12/09 05:09:48;;;;;;;25.77;13.60;;;;;;;-4.60;81.34;96739.98;1761241;80;22127;-52
2020/12/09 05:12:17;;;;;;;26.50;12.63;;;;;;;-4.60;81.50;96735.74;1751253;82;21613;-52
2020/12/09 05:14:47;;;;;;;22.67;12.73;;;;;;;-4.63;81.53;96738.30;1698465;83;21147;-52
2020/12/09 05:17:20;;;;;;;58.52;17.32;;;;;;;-4.72;81.75;96737.09;1721470;82;21146;-50
2020/12/09 05:19:48;;;;;;;50.85;16.75;;;;;;;-4.69;82.07;96744.27;1726138;82;21115;-53
2020/12/09 05:22:21;;;;;;;25.45;11.65;;;;;;;-4.54;81.70;96736.10;1714039;83;21507;-52
2020/12/09 05:24:49;;;;;;;32.90;14.28;;;;;;;-4.52;81.68;96740.75;1725190;82;21520;-52
2020/12/09 05:27:17;;;;;;;41.35;14.45;;;;;;;-4.53;81.48;96741.16;1714649;83;21132;-52
2020/12/09 05:29:50;;;;;;;39.23;13.30;;;;;;;-4.56;81.72;96756.38;1751518;82;21148;-52
2020/12/09 05:32:18;;;;;;;30.10;12.15;;;;;;;-4.59;81.52;96745.00;1750483;82;21088;-52
2020/12/09 05:34:45;;;;;;;30.32;13.90;;;;;;;-4.63;81.75;96744.19;1729890;83;22199;-52
2020/12/09 05:37:13;;;;;;;26.27;12.80;;;;;;;-4.53;81.71;96744.13;1744082;82;21174;-53
2020/12/09 05:39:51;;;;;;;26.80;12.73;;;;;;;-4.40;81.65;96741.06;1727809;82;21076;-55
2020/12/09 05:42:20;;;;;;;32.03;14.05;;;;;;;-4.34;81.10;96748.58;1712253;83;21081;-51
2020/12/09 05:44:48;;;;;;;47.27;15.80;;;;;;;-4.35;81.09;96746.48;1694653;84;21077;-52
2020/12/09 05:47:18;;;;;;;25.90;13.15;;;;;;;-4.40;81.09;96741.89;1713530;83;22097;-52
2020/12/09 05:49:45;;;;;;;23.95;12.50;;;;;;;-4.46;81.10;96737.73;1705894;83;21588;-51
2020/12/09 05:52:19;;;;;;;42.05;15.40;;;;;;;-4.51;81.41;96739.44;1729393;83;21484;-51
2020/12/09 05:54:50;;;;;;;26.37;14.35;;;;;;;-4.54;81.62;96740.77;1717211;83;38584;-51
2020/12/09 05:57:21;;;;;;;31.17;12.95;;;;;;;-4.57;81.69;96744.98;1716917;83;21131;-52
2020/12/09 05:59:50;;;;;;;25.70;11.93;;;;;;;-4.57;81.97;96751.31;1746555;82;21202;-51
2020/12/09 06:02:21;;;;;;;;;;;;;;;-4.57;82.13;96753.85;1778803;79;21069;-51
2020/12/09 06:04:55;;;;;;;30.10;13.83;;;;;;;-4.60;82.22;96756.44;1774626;80;20219;-51
2020/12/09 06:07:28;;;;;;;34.98;13.98;;;;;;;-4.60;82.32;96756.44;1774539;80;21172;-51
2020/12/09 06:10:14;;;;;;;35.75;15.10;;;;;;;-4.54;82.29;96761.42;1791335;79;21561;-52
2020/12/09 06:12:57;;;;;;;25.52;12.33;;;;;;;-4.51;82.08;96766.03;1815729;79;21365;-52
2020/12/09 06:15:28;;;;;;;26.27;12.78;;;;;;;-4.44;81.77;96762.62;1787980;79;21120;-52
2020/12/09 06:18:10;;;;;;;32.75;14.53;;;;;;;-4.44;81.68;96765.15;1774536;80;21198;-51
2020/12/09 06:20:40;;;;;;;46.53;15.00;;;;;;;-4.43;81.67;96767.25;1774523;80;21145;-52
2020/12/09 06:23:13;;;;;;;27.32;13.25;;;;;;;-4.43;81.90;96768.52;1777817;79;22188;-52
2020/12/09 06:25:42;;;;;;;26.52;13.10;;;;;;;-4.44;81.98;96766.86;1813367;79;21343;-51
2020/12/09 06:28:18;;;;;;;26.65;13.48;;;;;;;-4.45;81.99;96764.73;1815618;79;21082;-51
2020/12/09 06:30:46;;;;;;;64.22;16.45;;;;;;;-4.53;82.18;96765.65;1815664;79;21137;-51
2020/12/09 06:33:33;;;;;;;39.42;15.50;;;;;;;-4.62;82.82;96781.77;1805891;79;21079;-52
2020/12/09 06:36:23;;;;;;;33.33;14.10;;;;;;;-4.68;82.99;96784.34;1789664;79;21071;-52
2020/12/09 06:39:13;;;;;;;32.90;13.75;;;;;;;-4.70;83.15;96776.75;1784664;79;21152;-52
2020/12/09 06:41:48;;;;;;;35.48;15.43;;;;;;;-4.65;83.11;96764.89;1791716;79;21310;-52
2020/12/09 06:44:17;;;;;;;24.90;13.53;;;;;;;-4.63;83.08;96773.31;1814726;78;21153;-53
2020/12/09 06:46:52;;;;;;;29.20;14.43;;;;;;;-4.63;82.96;96768.25;1815840;78;21711;-52
2020/12/09 06:49:33;;;;;;;29.50;12.30;;;;;;;-4.58;82.91;96768.21;1788979;79;21098;-53
2020/12/09 06:52:15;;;;;;;33.45;15.58;;;;;;;-4.55;82.52;96771.99;1815742;79;21352;-51
2020/12/09 06:54:47;;;;;;;45.12;16.10;;;;;;;-4.59;82.52;96758.92;1801765;79;21094;-52
2020/12/09 06:57:38;;;;;;;48.10;18.35;;;;;;;-4.64;82.74;96761.92;1815028;79;21105;-52
2020/12/09 07:00:17;;;;;;;31.75;14.45;;;;;;;-4.58;82.94;96766.95;1786695;79;21625;-52
2020/12/09 07:02:47;;;;;;;50.52;16.90;;;;;;;-4.37;82.70;96772.70;1782281;79;21116;-52
2020/12/09 07:05:27;;;;;;;28.77;13.78;;;;;;;-4.32;82.09;96773.06;1786193;79;21363;-52
2020/12/09 07:08:05;;;;;;;43.92;15.28;;;;;;;-4.29;81.98;96768.41;1759422;80;21141;-52
2020/12/09 07:10:35;;;;;;;34.70;15.00;;;;;;;-4.30;81.86;96772.61;1743888;82;21121;-51
2020/12/09 07:13:11;;;;;;;27.62;14.78;;;;;;;-4.35;81.76;96773.09;1746161;80;21061;-51
2020/12/09 07:15:45;;;;;;;23.73;10.45;;;;;;;-4.44;82.05;96773.19;1770985;80;21155;-52
2020/12/09 07:18:12;;;;;;;40.20;14.20;;;;;;;-4.56;82.44;96772.00;1743034;80;21385;-51
2020/12/09 07:20:42;;;;;;;41.23;15.60;;;;;;;-4.65;82.83;96761.09;1774820;80;21079;-52
2020/12/09 07:23:10;;;;;;;32.55;14.00;;;;;;;-4.71;83.20;96760.30;1739628;80;21159;-51
2020/12/09 07:25:38;;;;;;;28.70;15.53;;;;;;;-4.66;83.28;96756.04;1725731;83;21071;-52
2020/12/09 07:28:06;;;;;;;31.15;14.53;;;;;;;-4.60;83.22;96756.44;1725755;83;21170;-51
2020/12/09 07:30:34;;;;;;;32.85;14.03;;;;;;;-4.54;82.97;96757.62;1731798;80;21204;-52
2020/12/09 07:33:02;;;;;;;27.98;13.85;;;;;;;-4.53;82.81;96769.45;1774817;80;21123;-50
2020/12/09 07:35:31;;;;;;;31.40;15.08;;;;;;;-4.57;82.71;96768.64;1775049;80;21154;-52
2020/12/09 07:38:00;;;;;;;22.30;12.60;;;;;;;-4.60;83.10;96759.80;1757356;80;21495;-52
2020/12/09 07:40:34;;;;;;;26.87;14.20;;;;;;;-4.58;83.01;96772.02;1755765;80;21114;-52
2020/12/09 07:43:09;;;;;;;26.93;14.73;;;;;;;-4.58;82.96;96768.21;1774928;80;22424;-52
2020/12/09 07:45:40;;;;;;;26.12;13.90;;;;;;;-4.58;83.08;96761.88;1749060;80;21075;-53
2020/12/09 07:48:15;;;;;;;21.97;12.95;;;;;;;-4.57;83.03;96750.91;1774898;80;21592;-51
2020/12/09 07:50:51;;;;;;;22.95;13.13;;;;;;;-4.52;82.80;96754.24;1774656;80;21067;-52
2020/12/09 07:53:19;;;;;;;24.32;13.68;;;;;;;-4.56;82.90;96762.70;1768164;80;21507;-51
2020/12/09 07:55:49;;;;;;;23.20;13.48;;;;;;;-4.58;82.91;96783.84;1742795;80;21297;-52
2020/12/09 07:58:18;;;;;;;26.47;13.77;;;;;;;-4.65;83.03;96776.28;1772457;80;21166;-52
2020/12/09 08:00:50;;;;;;;25.23;12.58;;;;;;;-4.65;83.13;96770.39;1759691;80;21575;-52
2020/12/09 08:03:25;;;;;;;26.45;14.90;;;;;;;-4.71;83.30;96771.27;1743653;81;21549;-52
2020/12/09 08:05:55;;;;;;;29.20;14.85;;;;;;;-4.72;83.41;96768.73;1731902;80;21243;-52
2020/12/09 08:08:26;;;;;;;27.95;13.38;;;;;;;-4.70;83.51;96763.27;1741355;80;21440;-52
2020/12/09 08:11:00;;;;;;;30.97;13.50;;;;;;;-4.71;83.48;96772.96;1728796;81;21230;-51
2020/12/09 08:13:28;;;;;;;27.48;15.28;;;;;;;-4.66;83.55;96780.09;1702267;80;21502;-52
2020/12/09 08:16:06;;;;;;;32.98;13.28;;;;;;;-4.61;83.39;96780.89;1754903;80;21148;-52
2020/12/09 08:18:37;;;;;;;28.73;14.07;;;;;;;-4.53;83.32;96772.81;1748736;80;21216;-52
2020/12/09 08:21:05;;;;;;;29.02;12.23;;;;;;;-4.44;83.06;96769.39;1754412;80;22360;-52
2020/12/09 08:23:50;;;;;;;42.08;16.32;;;;;;;-4.37;82.96;96777.77;1755928;81;21155;-51
2020/12/09 08:26:29;;;;;;;81.10;20.15;;;;;;;-4.31;82.51;96787.83;1756164;81;21132;-52
2020/12/09 08:28:57;;;;;;;45.00;16.50;;;;;;;-4.32;82.50;96783.20;1756144;81;21128;-52
2020/12/09 08:31:25;;;;;;;66.20;17.75;;;;;;;-4.30;82.42;96792.88;1754838;80;21151;-53
2020/12/09 08:33:53;;;;;;;45.50;18.17;;;;;;;-4.30;82.41;96784.02;1756150;80;21428;-51
2020/12/09 08:36:22;;;;;;;35.50;14.87;;;;;;;-4.22;82.47;96772.99;1755975;80;21065;-52
2020/12/09 08:38:59;;;;;;;35.15;15.10;;;;;;;-4.15;81.87;96778.41;1755429;80;21049;-52
2020/12/09 08:41:33;;;;;;;30.65;14.40;;;;;;;-4.18;81.89;96783.06;1748907;80;21124;-52
2020/12/09 08:44:06;;;;;;;32.03;15.32;;;;;;;-4.19;81.81;96773.80;1756099;81;21049;-51
2020/12/09 08:46:35;;;;;;;35.63;14.87;;;;;;;-4.21;82.04;96774.25;1731014;81;21462;-51
2020/12/09 08:49:03;;;;;;;30.88;14.60;;;;;;;-4.15;82.16;96775.87;1732101;81;21081;-51
2020/12/09 08:51:33;;;;;;;31.10;14.33;;;;;;;-4.14;82.01;96775.03;1751457;80;21607;-52
2020/12/09 08:54:05;;;;;;;45.08;14.65;;;;;;;-4.13;82.11;96773.75;1731386;81;21533;-52
2020/12/09 08:56:33;;;;;;;61.83;19.02;;;;;;;-4.00;81.96;96761.77;1749116;81;21072;-52
2020/12/09 08:59:01;;;;;;;;;;;;;;;-3.98;81.78;96761.75;1719536;82;21375;-52
2020/12/09 09:01:37;;;;;;;52.38;15.88;;;;;;;-3.93;81.74;96768.47;1713633;82;27065;-52
2020/12/09 09:04:07;;;;;;;49.45;13.95;;;;;;;-3.87;81.54;96765.02;1804874;78;21145;-51
2020/12/09 09:06:34;;;;;;;27.77;14.65;;;;;;;-3.90;81.25;96752.38;1784378;79;21155;-51
2020/12/09 09:09:04;;;;;;;25.82;14.23;;;;;;;-3.96;81.22;96749.93;1791891;77;21604;-51
2020/12/09 09:11:33;;;;;;;29.55;13.83;;;;;;;-4.10;81.56;96752.59;1813709;79;21241;-51
2020/12/09 09:14:01;;;;;;;41.68;14.75;;;;;;;-4.12;81.78;96745.00;1787141;79;21077;-52
2020/12/09 09:16:29;;;;;;;46.68;16.50;;;;;;;-4.04;81.90;96750.44;1815639;79;21074;-52
2020/12/09 09:18:56;;;;;;;22.25;11.15;;;;;;;-3.97;81.73;96738.92;1774516;80;21112;-52
2020/12/09 09:21:25;;;;;;;23.98;13.38;;;;;;;-3.91;81.17;96747.73;1735034;82;21164;-52
2020/12/09 09:23:53;;;;;;;35.33;13.08;;;;;;;-4.01;81.01;96745.30;1696230;82;21802;-51
2020/12/09 09:26:21;;;;;;;34.95;14.68;;;;;;;-4.16;81.63;96743.77;1741207;82;21081;-52
2020/12/09 09:28:49;;;;;;;29.07;12.23;;;;;;;-4.27;82.04;96750.23;1815706;79;21062;-52
2020/12/09 09:31:17;;;;;;;26.33;12.93;;;;;;;-4.33;82.33;96751.11;1806448;78;22074;-52
2020/12/09 09:33:45;;;;;;;64.50;18.35;;;;;;;-4.36;82.37;96747.77;1797246;78;26820;-52
2020/12/09 09:36:13;;;;;;;31.25;14.20;;;;;;;-4.40;82.80;96746.95;1782129;80;21105;-50
2020/12/09 09:38:41;;;;;;;24.27;13.38;;;;;;;-4.36;83.01;96746.09;1802522;77;21096;-51
2020/12/09 09:41:09;;;;;;;28.52;14.25;;;;;;;-4.27;82.73;96737.13;1812773;77;21098;-52
2020/12/09 09:43:37;;;;;;;24.55;12.40;;;;;;;-4.21;82.75;96734.11;1786369;79;21177;-52
2020/12/09 09:46:05;;;;;;;28.05;13.80;;;;;;;-4.18;82.32;96739.98;1815695;79;21593;-51
2020/12/09 09:48:32;;;;;;;18.17;10.13;;;;;;;-4.29;82.49;96728.70;1796262;79;21503;-53
2020/12/09 09:51:00;;;;;;;28.07;12.60;;;;;;;-4.38;82.98;96734.28;1800531;77;21499;-52
2020/12/09 09:53:28;;;;;;;28.03;14.07;;;;;;;-4.44;83.30;96725.06;1787090;79;21566;-52
2020/12/09 09:55:55;;;;;;;30.37;11.65;;;;;;;-4.48;83.58;96722.13;1814172;77;21138;-52
2020/12/09 09:58:23;;;;;;;56.70;14.50;;;;;;;-4.45;83.75;96722.94;1815719;78;21062;-52
2020/12/09 10:00:51;;;;;;;39.87;13.30;;;;;;;-4.39;83.68;96728.39;1809490;79;21139;-51
2020/12/09 10:03:19;;;;;;;78.17;20.00;;;;;;;-4.36;83.58;96720.77;1742777;82;21104;-51
2020/12/09 10:05:47;;;;;;;27.90;14.00;;;;;;;-4.29;83.39;96720.27;1815965;79;21070;-52
2020/12/09 10:08:14;;;;;;;43.75;15.80;;;;;;;-4.26;83.25;96713.48;1809069;77;21184;-52
2020/12/09 10:10:42;;;;;;;34.80;13.37;;;;;;;-4.27;83.32;96711.78;1806114;77;21037;-52
2020/12/09 10:13:11;;;;;;;33.25;14.13;;;;;;;-4.27;83.23;96714.76;1815811;79;21739;-51
2020/12/09 10:15:39;;;;;;;25.40;14.57;;;;;;;-4.27;83.25;96709.69;1815878;79;21066;-52
2020/12/09 10:18:07;;;;;;;32.67;15.45;;;;;;;-4.27;83.34;96710.95;1805300;79;21065;-52
2020/12/09 10:20:35;;;;;;;34.63;17.93;;;;;;;-4.23;83.52;96702.89;1749477;77;21116;-52
2020/12/09 10:23:03;;;;;;;34.95;14.83;;;;;;;-4.09;83.63;96695.98;1816169;79;21469;-51
2020/12/09 10:25:32;;;;;;;28.90;13.03;;;;;;;-3.89;83.02;96688.98;1805957;77;21254;-52
2020/12/09 10:28:01;;;;;;;30.43;14.63;;;;;;;-3.84;82.14;96698.24;1815766;78;21081;-51
2020/12/09 10:30:29;;;;;;;46.70;17.92;;;;;;;-3.98;82.34;96704.72;1774864;80;21498;-52
2020/12/09 10:32:57;;;;;;;35.15;16.97;;;;;;;-4.03;82.70;96698.87;1734548;82;21162;-52
2020/12/09 10:35:25;;;;;;;30.52;15.13;;;;;;;-3.90;82.73;96698.73;1735459;81;21595;-52
2020/12/09 10:37:54;;;;;;;32.78;16.35;;;;;;;-3.74;82.50;96694.73;1727441;80;21212;-53
2020/12/09 10:40:22;;;;;;;31.77;15.70;;;;;;;-3.67;81.92;96691.25;1756579;80;21112;-52
2020/12/09 10:42:50;;;;;;;26.50;14.05;;;;;;;-3.68;81.56;96680.72;1712990;83;21093;-52
2020/12/09 10:45:18;;;;;;;36.25;15.55;;;;;;;-3.78;81.72;96685.50;1743887;82;21081;-52
2020/12/09 10:47:46;;;;;;;26.75;12.75;;;;;;;-3.90;82.05;96692.39;1745895;80;21121;-52
2020/12/09 10:50:14;;;;;;;29.97;15.23;;;;;;;-3.92;82.31;96690.72;1740783;79;21318;-53
2020/12/09 10:52:42;;;;;;;31.00;15.13;;;;;;;-3.93;82.40;96693.69;1720121;83;21091;-52
2020/12/09 10:55:10;;;;;;;31.03;14.60;;;;;;;-3.97;82.36;96686.96;1795310;79;21458;-53
2020/12/09 10:57:37;;;;;;;27.80;14.87;;;;;;;-3.93;82.62;96680.16;1815768;79;21170;-52
2020/12/09 11:00:06;;;;;;;28.10;14.53;;;;;;;-3.87;82.20;96680.53;1814414;79;21553;-52
2020/12/09 11:02:34;;;;;;;27.25;13.38;;;;;;;-3.91;82.02;96683.09;1743243;79;21209;-51
2020/12/09 11:05:02;;;;;;;28.85;14.68;;;;;;;-4.02;82.33;96679.84;1799482;79;21501;-51
2020/12/09 11:07:30;;;;;;;29.18;12.18;;;;;;;-4.10;82.70;96683.72;1799807;78;21480;-53
2020/12/09 11:09:58;;;;;;;22.90;11.57;;;;;;;-4.05;82.74;96676.52;1798088;78;21111;-52
2020/12/09 11:12:26;;;;;;;28.73;13.98;;;;;;;-4.08;82.64;96688.78;1740256;81;21111;-52
2020/12/09 11:14:57;;;;;;;25.65;13.28;;;;;;;-4.18;82.96;96693.10;1792564;79;21163;-51
2020/12/09 11:17:25;;;;;;;;;;;;;;;-4.17;83.12;96685.09;1773707;79;21110;-51
2020/12/09 11:19:52;;;;;;;21.45;11.95;;;;;;;-4.16;83.23;96683.81;1762401;79;20217;-51
2020/12/09 11:22:21;;;;;;;27.32;14.15;;;;;;;-4.13;82.96;96685.05;1783251;78;21072;-52
2020/12/09 11:24:50;;;;;;;29.98;15.50;;;;;;;-4.15;83.12;96679.14;1730196;79;21076;-54
2020/12/09 11:27:19;;;;;;;27.45;14.50;;;;;;;-4.11;83.17;96687.57;1798047;79;21326;-51
2020/12/09 11:29:47;;;;;;;27.73;15.45;;;;;;;-4.09;83.16;96684.14;1761655;80;21859;-50
2020/12/09 11:32:16;;;;;;;26.68;14.45;;;;;;;-4.00;83.33;96681.92;1730621;81;21128;-52